Time;durP1;ratioP1;P1;durP2;ratioP2;P2;SDS_P1;SDS_P2;PMS_P1;PMS_P2;Temp;Humidity;BMP_temperature;BMP_pressure;BME280_temperature;BME280_humidity;BME280_pressure;Samples;Min_cycle;Max_cycle;Signal;HPM_P1;HPM_P2
2022/11/28 00:02:17;;;;;;;6.00;3.58;;;6.20;99.90;;;4.60;94.35;100671.66;4873829;29;20036;-74
2022/11/28 00:04:43;;;;;;;7.28;4.13;;;6.20;99.90;;;4.56;94.16;100672.19;4874825;29;20484;-74
2022/11/28 00:07:11;;;;;;;7.78;3.50;;;6.20;99.90;;;4.75;91.41;100695.22;4875280;29;20162;-74
2022/11/28 00:09:37;;;;;;;7.65;3.78;;;6.30;99.90;;;4.75;91.99;100697.94;4876243;29;20044;-74
2022/11/28 00:12:02;;;;;;;8.68;4.20;;;6.40;99.90;;;4.67;92.65;100679.91;4874627;29;20032;-75
2022/11/28 00:14:28;;;;;;;6.22;3.80;;;6.40;99.90;;;4.71;92.58;100677.69;4873765;29;20488;-74
2022/11/28 00:16:54;;;;;;;7.03;3.63;;;6.40;99.90;;;4.79;90.23;100677.63;4873716;29;20041;-74
2022/11/28 00:19:19;;;;;;;7.97;4.20;;;6.40;99.90;;;4.78;93.56;100680.53;4873945;29;20033;-74
2022/11/28 00:21:45;;;;;;;7.35;3.53;;;6.40;99.90;;;4.74;93.70;100678.16;4874955;29;20036;-74
2022/11/28 00:24:11;;;;;;;7.00;3.75;;;6.30;99.90;;;4.63;95.74;100675.88;4873422;29;20033;-74
2022/11/28 00:26:40;;;;;;;8.98;3.83;;;6.30;99.90;;;4.46;100.00;100678.63;4874652;29;20029;-76
2022/11/28 00:29:08;;;;;;;6.63;3.83;;;6.20;99.90;;;4.30;100.00;100665.22;4873153;29;20037;-74
2022/11/28 00:31:42;;;;;;;6.15;3.70;;;6.00;99.90;;;4.27;100.00;100673.69;4874184;29;20037;-74
2022/11/28 00:34:11;;;;;;;6.40;3.45;;;6.00;99.90;;;4.30;100.00;100665.22;4875226;29;20037;-74
2022/11/28 00:36:36;;;;;;;6.47;3.90;;;5.90;99.90;;;4.33;100.00;100662.16;4874219;29;20517;-75
2022/11/28 00:39:03;;;;;;;6.40;4.00;;;6.00;99.90;;;4.26;100.00;100653.91;4873521;29;20057;-74
2022/11/28 00:41:32;;;;;;;8.65;3.75;;;5.90;99.90;;;4.28;100.00;100668.06;4873445;29;20119;-74
2022/11/28 00:43:58;;;;;;;7.28;3.50;;;5.90;99.90;;;4.42;100.00;100677.31;4873022;29;20071;-75
2022/11/28 00:46:24;;;;;;;6.95;3.67;;;6.00;99.90;;;4.53;96.16;100686.06;4873468;29;20032;-74
2022/11/28 00:48:51;;;;;;;7.80;3.20;;;6.10;99.90;;;4.59;95.66;100685.34;4873748;29;20092;-75
2022/11/28 00:51:24;;;;;;;6.75;3.22;;;6.20;99.90;;;4.52;100.00;100662.75;4873572;29;20029;-75
2022/11/28 00:53:53;;;;;;;6.72;3.35;;;6.10;99.90;;;4.36;100.00;100672.63;4873433;29;20053;-75
2022/11/28 00:56:23;;;;;;;7.97;3.40;;;6.10;99.90;;;4.43;97.99;100670.88;4873069;29;20088;-75
2022/11/28 00:58:50;;;;;;;6.22;3.30;;;6.10;99.90;;;4.44;100.00;100661.75;4873230;29;20115;-75
2022/11/28 01:01:22;;;;;;;5.30;3.40;;;6.10;99.90;;;4.45;97.70;100662.63;4873914;29;20033;-75
2022/11/28 01:03:50;;;;;;;6.75;3.60;;;6.10;99.90;;;4.50;97.30;100659.38;4870047;29;20041;-75
2022/11/28 01:06:30;;;;;;;7.10;3.30;;;6.10;99.90;;;4.45;98.12;100649.94;4873496;29;20041;-75
2022/11/28 01:09:04;;;;;;;7.38;3.65;;;6.10;99.90;;;4.41;100.00;100632.41;4870971;29;20439;-74
2022/11/28 01:11:30;;;;;;;8.93;4.50;;;6.10;99.90;;;4.24;100.00;100620.84;4869236;29;20033;-74
2022/11/28 01:13:59;;;;;;;7.30;4.35;;;6.00;99.90;;;4.09;100.00;100603.69;4873543;29;20469;-74
2022/11/28 01:16:25;;;;;;;8.52;5.10;;;5.80;99.90;;;4.00;100.00;100601.03;4874547;29;20058;-74
2022/11/28 01:18:52;;;;;;;11.57;5.13;;;5.70;99.90;;;3.98;100.00;100588.72;4874224;29;20037;-74
2022/11/28 01:21:19;;;;;;;9.77;5.22;;;5.70;99.90;;;3.91;100.00;100591.28;4873640;29;20047;-74
2022/11/28 01:23:45;;;;;;;8.38;4.70;;;5.60;99.90;;;3.95;100.00;100606.09;4871109;29;20038;-74
2022/11/28 01:26:17;;;;;;;7.63;4.30;;;5.60;99.90;;;4.14;100.00;100612.94;4872082;29;20045;-74
2022/11/28 01:28:43;;;;;;;9.52;4.53;;;5.70;99.90;;;4.19;100.00;100607.03;4858942;29;20038;-74
2022/11/28 01:31:14;;;;;;;8.75;4.65;;;5.80;99.90;;;4.20;100.00;100640.25;4874439;29;20048;-74
2022/11/28 01:33:40;;;;;;;7.32;3.97;;;5.80;99.90;;;4.31;100.00;100637.19;4872251;29;20036;-75
2022/11/28 01:36:07;;;;;;;8.38;4.65;;;5.90;99.90;;;4.35;100.00;100633.13;4873210;29;20033;-74
2022/11/28 01:38:34;;;;;;;8.95;4.45;;;6.00;99.90;;;4.30;100.00;100608.50;4871323;29;20433;-74
2022/11/28 01:41:00;;;;;;;7.50;4.00;;;5.90;99.90;;;4.29;100.00;100613.03;4873448;29;20033;-74
2022/11/28 01:43:26;;;;;;;10.55;4.95;;;5.90;99.90;;;4.29;100.00;100601.41;4872313;29;20314;-75
2022/11/28 01:45:53;;;;;;;9.40;4.88;;;5.90;99.90;;;4.28;100.00;100602.44;4874205;29;20057;-75
2022/11/28 01:48:31;;;;;;;7.47;4.38;;;5.90;99.90;;;4.29;100.00;100596.00;4872706;29;20036;-75
2022/11/28 01:51:07;;;;;;;11.30;4.70;;;6.00;99.90;;;4.31;100.00;100600.19;4868173;29;20040;-75
2022/11/28 01:53:41;;;;;;;8.20;4.70;;;6.00;99.90;;;4.38;100.00;100594.13;4872485;29;20084;-75
2022/11/28 01:56:27;;;;;;;8.50;4.82;;;6.00;99.90;;;4.36;100.00;100590.72;4873674;29;20040;-74
2022/11/28 01:59:03;;;;;;;9.50;4.70;;;6.00;99.90;;;4.27;100.00;100563.75;4870628;29;20037;-74
2022/11/28 02:01:29;;;;;;;12.07;5.40;;;6.00;99.90;;;4.17;100.00;100536.97;4869960;29;20096;-75
2022/11/28 02:03:57;;;;;;;9.68;5.70;;;5.90;99.90;;;3.98;100.00;100499.66;4871484;29;20033;-75
2022/11/28 02:06:26;;;;;;;12.82;6.10;;;5.80;99.90;;;3.82;100.00;100514.03;4872622;29;20476;-75
2022/11/28 02:08:54;;;;;;;11.18;6.25;;;5.60;99.90;;;3.80;100.00;100538.50;4872758;29;20064;-75
2022/11/28 02:11:55;;;;;;;11.20;5.68;;;5.50;99.90;;;3.86;100.00;100537.81;4872899;29;20474;-74
2022/11/28 02:14:36;;;;;;;11.18;5.18;;;5.60;99.90;;;4.09;100.00;100553.22;4873260;29;20061;-75
2022/11/28 02:17:39;;;;;;;10.35;5.80;;;5.70;99.90;;;4.11;100.00;100551.19;4871511;29;20045;-75
2022/11/28 02:20:41;;;;;;;12.93;6.80;;;5.70;99.90;;;3.97;100.00;100546.53;4871614;29;20037;-76
2022/11/28 02:23:31;;;;;;;13.43;6.18;;;5.70;99.90;;;3.88;100.00;100533.06;4870545;29;20079;-74
2022/11/28 02:26:39;;;;;;;13.32;6.88;;;5.60;99.90;;;3.81;100.00;100537.50;4867155;29;20120;-75
2022/11/28 02:29:38;;;;;;;13.25;7.40;;;5.60;99.90;;;3.78;100.00;100528.91;4872471;29;20053;-74
2022/11/28 02:32:43;;;;;;;13.40;6.90;;;5.50;99.90;;;3.76;100.00;100496.72;4869213;29;20036;-74
2022/11/28 02:35:45;;;;;;;14.07;7.10;;;5.50;99.90;;;3.76;100.00;100480.50;4869206;29;20044;-75
2022/11/28 02:39:01;;;;;;;9.85;6.20;;;5.40;99.90;;;3.83;100.00;100484.19;4867687;29;20045;-75
2022/11/28 02:42:03;;;;;;;10.90;5.97;;;5.50;99.90;;;3.88;100.00;100497.16;4869622;29;20177;-74
2022/11/28 02:44:44;;;;;;;10.88;5.60;;;5.60;99.90;;;4.05;100.00;100507.84;4869863;29;20783;-74
2022/11/28 02:47:12;;;;;;;11.63;6.65;;;5.60;99.90;;;4.14;100.00;100496.00;4871879;29;20033;-75
2022/11/28 02:49:52;;;;;;;10.50;5.57;;;5.80;99.90;;;4.14;100.00;100502.22;4872964;29;20056;-75
2022/11/28 02:52:27;;;;;;;12.00;6.30;;;5.80;99.90;;;4.26;100.00;100534.25;4872871;29;20033;-74
2022/11/28 02:54:55;;;;;;;10.35;5.30;;;5.90;99.90;;;4.23;100.00;100538.13;4873673;29;20041;-75
2022/11/28 02:57:20;;;;;;;8.98;5.30;;;5.90;99.90;;;4.16;100.00;100527.19;4872413;29;20120;-74
2022/11/28 02:59:49;;;;;;;10.40;4.82;;;5.90;99.90;;;4.12;100.00;100530.44;4872209;29;20052;-75
2022/11/28 03:02:24;;;;;;;8.93;4.70;;;5.80;99.90;;;4.18;100.00;100511.66;4871513;29;20163;-75
2022/11/28 03:05:28;;;;;;;7.90;4.63;;;5.80;99.90;;;4.18;100.00;100511.66;4872543;29;20032;-75
2022/11/28 03:07:53;;;;;;;7.47;4.60;;;5.80;99.90;;;4.25;99.23;100495.59;4871528;29;20096;-75
2022/11/28 03:10:35;;;;;;;8.55;4.63;;;5.90;99.90;;;4.32;96.81;100514.63;4871773;29;20033;-76
2022/11/28 03:13:30;;;;;;;10.27;4.43;;;5.90;99.90;;;4.36;96.00;100498.88;4871071;29;20038;-75
2022/11/28 03:16:25;;;;;;;9.02;3.42;;;6.00;99.90;;;4.39;91.92;100496.66;4867516;29;20046;-74
2022/11/28 03:19:20;;;;;;;7.18;3.50;;;6.00;99.90;;;4.45;90.50;100489.72;4867604;29;20041;-75
2022/11/28 03:22:12;;;;;;;5.60;3.15;;;6.10;99.90;;;4.48;89.20;100492.06;4872036;29;20025;-74
2022/11/28 03:24:51;;;;;;;6.90;3.72;;;6.10;99.90;;;4.45;89.47;100495.94;4870924;29;20093;-75
2022/11/28 03:27:25;;;;;;;5.57;3.55;;;6.10;99.90;;;4.45;91.18;100495.94;4869074;29;20448;-74
2022/11/28 03:29:59;;;;;;;6.95;3.75;;;6.10;99.90;;;4.36;93.39;100482.66;4872556;29;20087;-74
2022/11/28 03:32:36;;;;;;;8.70;5.15;;;6.10;99.90;;;4.29;96.92;100487.97;4869350;29;20126;-74
2022/11/28 03:35:11;;;;;;;6.82;4.10;;;6.00;99.90;;;4.15;100.00;100479.59;4867593;29;20071;-74
2022/11/28 03:37:45;;;;;;;8.05;4.65;;;5.90;99.90;;;4.07;100.00;100490.47;4871555;29;20059;-74
2022/11/28 03:40:19;;;;;;;9.75;4.13;;;5.80;99.90;;;4.10;99.13;100479.31;4871720;29;20484;-74
2022/11/28 03:42:56;;;;;;;8.32;4.00;;;5.80;99.90;;;4.10;99.01;100476.59;4872012;29;20033;-74
2022/11/28 03:45:27;;;;;;;7.22;3.63;;;5.80;99.90;;;4.16;95.96;100480.47;4871676;29;20072;-74
2022/11/28 03:48:20;;;;;;;6.15;3.92;;;5.80;99.90;;;4.19;95.18;100482.81;4870060;29;20040;-75
2022/11/28 03:51:13;;;;;;;6.18;3.35;;;5.80;99.90;;;4.17;95.43;100491.06;4872224;29;20044;-75
2022/11/28 03:54:14;;;;;;;6.25;3.58;;;5.80;99.90;;;4.27;89.52;100487.31;4874757;29;20581;-74
2022/11/28 03:57:10;;;;;;;4.47;2.70;;;5.80;99.90;;;4.49;84.31;100479.38;4872704;29;20041;-74
2022/11/28 04:00:01;;;;;;;5.10;2.83;;;6.00;99.90;;;4.66;81.76;100478.22;4873566;29;20101;-75
2022/11/28 04:02:37;;;;;;;5.28;3.00;;;6.20;99.90;;;4.60;82.45;100462.75;4873765;29;20480;-75
2022/11/28 04:05:31;;;;;;;7.10;3.63;;;6.20;99.90;;;4.40;91.71;100460.53;4874114;29;20044;-76
2022/11/28 04:08:31;;;;;;;6.00;3.55;;;6.10;99.90;;;4.18;93.97;100465.75;4873500;29;20037;-75
2022/11/28 04:11:15;;;;;;;8.13;3.30;;;6.00;99.90;;;4.28;86.43;100465.50;4872568;29;20045;-75
2022/11/28 04:13:53;;;;;;;5.55;2.85;;;5.90;99.90;;;4.36;85.50;100467.31;4873811;29;20045;-75
2022/11/28 04:16:36;;;;;;;5.20;2.77;;;5.90;99.90;;;4.38;85.98;100457.16;4870675;29;20045;-75
2022/11/28 04:19:22;;;;;;;5.63;3.28;;;6.00;99.90;;;4.36;86.55;100456.50;4873482;29;20025;-76
2022/11/28 04:22:26;;;;;;;4.82;3.00;;;6.00;99.90;;;4.27;87.84;100460.31;4868024;29;20040;-76
2022/11/28 04:24:59;;;;;;;6.95;3.17;;;5.90;99.90;;;4.25;86.36;100465.06;4872750;29;20530;-76
2022/11/28 04:27:36;;;;;;;5.97;2.85;;;5.90;99.90;;;4.21;87.54;100458.31;4874968;29;20470;-76
2022/11/28 04:30:05;;;;;;;5.55;2.92;;;5.90;99.90;;;4.20;87.02;100451.22;4872162;29;20029;-75
2022/11/28 04:32:38;;;;;;;5.03;2.67;;;5.90;99.90;;;4.28;85.85;100452.00;4864930;29;20037;-76
2022/11/28 04:35:15;;;;;;;5.45;2.92;;;5.90;99.90;;;4.16;89.12;100445.34;4875322;29;20472;-76
2022/11/28 04:37:47;;;;;;;6.32;3.10;;;5.80;99.90;;;4.15;87.53;100444.50;4872011;29;20068;-76
2022/11/28 04:40:16;;;;;;;5.43;3.05;;;5.80;99.90;;;4.14;88.57;100442.81;4873016;29;20073;-75
2022/11/28 04:42:50;;;;;;;5.07;2.88;;;5.80;99.90;;;4.18;87.96;100444.16;4874979;29;20033;-76
2022/11/28 04:45:38;;;;;;;6.30;3.08;;;5.80;99.90;;;4.17;88.96;100441.63;4873653;29;20484;-75
2022/11/28 04:48:06;;;;;;;5.07;3.10;;;5.80;99.90;;;4.12;90.00;100435.94;4871938;29;20037;-75
2022/11/28 04:51:11;;;;;;;7.05;3.28;;;5.80;99.90;;;4.12;91.64;100436.78;4873088;29;20097;-75
2022/11/28 04:53:59;;;;;;;6.30;3.40;;;5.80;99.90;;;4.07;91.86;100432.91;4871084;29;20117;-75
2022/11/28 04:56:37;;;;;;;6.70;3.38;;;5.70;99.90;;;3.97;94.52;100430.44;4871488;29;20444;-75
2022/11/28 04:59:06;;;;;;;7.20;3.80;;;5.70;99.90;;;3.88;95.70;100425.09;4874714;29;20041;-75
2022/11/28 05:01:33;;;;;;;7.43;3.58;;;5.60;99.90;;;3.88;96.89;100427.81;4874210;29;20029;-75
2022/11/28 05:04:01;;;;;;;6.65;3.92;;;5.60;99.90;;;3.77;99.84;100425.53;4872803;29;20066;-74
2022/11/28 05:06:32;;;;;;;6.30;3.30;;;5.50;99.90;;;3.65;100.00;100427.78;4873042;29;20041;-74
2022/11/28 05:08:58;;;;;;;7.97;4.55;;;5.40;99.90;;;3.57;100.00;100430.50;4873237;29;20089;-75
2022/11/28 05:11:24;;;;;;;6.75;3.80;;;5.30;99.90;;;3.49;100.00;100428.72;4872861;29;20120;-74
2022/11/28 05:13:50;;;;;;;6.43;4.10;;;5.20;99.90;;;3.49;100.00;100434.09;4874984;29;20048;-74
2022/11/28 05:16:17;;;;;;;9.27;4.88;;;5.20;99.90;;;3.35;100.00;100430.28;4872034;29;20115;-74
2022/11/28 05:18:43;;;;;;;12.45;4.90;;;5.10;99.90;;;3.19;100.00;100425.78;4872831;29;20077;-75
2022/11/28 05:21:10;;;;;;;8.15;4.80;;;5.00;99.90;;;3.04;100.00;100404.06;4866050;29;20396;-74
2022/11/28 05:23:41;;;;;;;8.60;4.95;;;4.90;99.90;;;3.08;100.00;100409.97;4872891;29;20036;-74
2022/11/28 05:26:16;;;;;;;8.95;4.95;;;4.80;99.90;;;3.02;100.00;100411.50;4874452;29;20397;-74
2022/11/28 05:28:44;;;;;;;8.95;5.18;;;4.80;99.90;;;3.06;100.00;100412.00;4873583;29;20454;-74
2022/11/28 05:31:10;;;;;;;9.13;4.68;;;4.80;99.90;;;3.19;100.00;100417.69;4874189;29;20396;-75
2022/11/28 05:33:36;;;;;;;8.00;4.38;;;4.90;99.90;;;3.19;100.00;100412.31;4873276;29;20038;-75
2022/11/28 05:36:11;;;;;;;7.55;4.55;;;4.90;99.90;;;3.27;100.00;100423.06;4869191;29;20040;-75
2022/11/28 05:38:38;;;;;;;7.80;4.43;;;5.00;99.90;;;3.23;100.00;100419.03;4873390;29;20396;-74
2022/11/28 05:41:04;;;;;;;8.65;4.55;;;5.00;99.90;;;3.28;100.00;100430.13;4872524;29;20021;-74
2022/11/28 05:43:30;;;;;;;11.80;4.95;;;5.00;99.90;;;3.25;100.00;100433.19;4873018;29;20667;-74
2022/11/28 05:45:56;;;;;;;7.38;4.40;;;5.00;99.90;;;3.20;100.00;100430.16;4873043;29;20120;-75
2022/11/28 05:48:23;;;;;;;8.73;5.20;;;4.90;99.90;;;3.14;100.00;100426.31;4874403;29;20037;-75
2022/11/28 05:50:49;;;;;;;10.77;5.38;;;4.90;99.90;;;3.06;100.00;100425.47;4874073;29;20132;-74
2022/11/28 05:53:19;;;;;;;9.20;5.35;;;4.80;99.90;;;3.02;100.00;100428.53;4872859;29;20228;-74
2022/11/28 05:55:46;;;;;;;7.85;4.90;;;4.70;99.90;;;2.95;100.00;100432.94;4870890;29;20076;-74
2022/11/28 05:58:12;;;;;;;11.82;5.60;;;4.70;99.90;;;2.93;100.00;100418.78;4872680;29;20043;-74
2022/11/28 06:00:38;;;;;;;9.85;5.30;;;4.60;99.90;;;2.88;100.00;100427.38;4873308;29;20115;-74
2022/11/28 06:03:04;;;;;;;9.32;5.43;;;4.60;99.90;;;2.81;100.00;100415.63;4872782;29;20121;-76
2022/11/28 06:05:31;;;;;;;9.95;5.47;;;4.50;99.90;;;2.73;100.00;100411.06;4872317;29;20518;-74
2022/11/28 06:07:57;;;;;;;8.52;5.13;;;4.40;99.90;;;2.68;100.00;100413.44;4873535;29;20165;-75
2022/11/28 06:10:22;;;;;;;9.25;5.28;;;4.40;99.90;;;2.58;100.00;100402.84;4872736;29;20049;-74
2022/11/28 06:12:48;;;;;;;12.32;5.50;;;4.30;99.90;;;2.55;100.00;100413.97;4872145;29;20084;-74
2022/11/28 06:15:14;;;;;;;9.75;5.28;;;4.30;99.90;;;2.51;100.00;100417.97;4872829;29;20037;-75
2022/11/28 06:17:40;;;;;;;12.85;5.80;;;4.20;99.90;;;2.46;100.00;100417.66;4872467;29;20736;-75
2022/11/28 06:20:07;;;;;;;14.80;5.97;;;4.20;99.90;;;2.43;100.00;100412.63;4866009;29;20021;-74
2022/11/28 06:22:33;;;;;;;11.02;6.20;;;4.10;99.90;;;2.37;100.00;100418.69;4869066;29;20057;-74
2022/11/28 06:24:59;;;;;;;11.20;5.90;;;4.10;99.90;;;2.35;100.00;100413.44;4871167;29;20067;-74
2022/11/28 06:27:25;;;;;;;10.85;6.28;;;4.10;99.90;;;2.30;100.00;100413.13;4871697;29;20064;-77
2022/11/28 06:29:50;;;;;;;14.43;6.25;;;4.00;99.90;;;2.27;100.00;100406.25;4871395;29;20777;-76
2022/11/28 06:32:16;;;;;;;12.45;6.68;;;4.00;99.90;;;2.27;100.00;100400.84;4871211;29;20052;-77
2022/11/28 06:34:42;;;;;;;9.88;5.65;;;4.00;99.90;;;2.23;100.00;100399.47;4871493;29;20044;-76
2022/11/28 06:37:07;;;;;;;11.25;6.45;;;3.90;99.90;;;2.18;100.00;100392.94;4870964;29;20037;-76
2022/11/28 06:39:33;;;;;;;11.05;5.97;;;3.90;99.90;;;2.11;100.00;100398.97;4867975;29;20483;-76
2022/11/28 06:41:59;;;;;;;11.77;7.20;;;3.80;99.90;;;2.02;100.00;100399.97;4872357;29;20084;-75
2022/11/28 06:44:25;;;;;;;12.35;6.57;;;3.70;99.90;;;2.05;100.00;100396.97;4870340;29;20109;-76
2022/11/28 06:46:50;;;;;;;14.30;7.35;;;3.70;99.90;;;2.04;100.00;100395.28;4871301;29;20049;-76
2022/11/28 06:49:16;;;;;;;13.05;7.45;;;3.80;99.90;;;2.10;100.00;100402.69;4872568;29;20029;-76
2022/11/28 06:51:44;;;;;;;16.00;7.20;;;3.80;99.90;;;2.09;100.00;100402.84;4866675;29;20036;-76
2022/11/28 06:54:11;;;;;;;15.27;7.78;;;3.80;99.90;;;2.09;100.00;100409.06;4871716;29;20040;-75
2022/11/28 06:56:39;;;;;;;14.90;7.80;;;3.80;99.90;;;2.13;100.00;100415.81;4871607;29;20472;-75
2022/11/28 06:59:04;;;;;;;;;;;3.80;99.90;;;2.20;100.00;100423.22;4872183;29;20044;-76
2022/11/28 07:01:33;;;;;;;15.38;7.68;;;3.90;99.90;;;2.25;100.00;100428.94;4869650;29;19919;-76
2022/11/28 07:03:58;;;;;;;14.20;7.78;;;3.90;99.90;;;2.30;100.00;100430.13;4870772;29;20053;-75
2022/11/28 07:06:26;;;;;;;14.45;7.78;;;4.00;99.90;;;2.33;100.00;100434.31;4867036;29;20033;-76
2022/11/28 07:08:55;;;;;;;13.85;7.30;;;4.00;99.90;;;2.34;100.00;100433.31;4868897;29;20084;-76
2022/11/28 07:11:25;;;;;;;14.98;7.43;;;4.10;99.90;;;2.37;100.00;100432.16;4868288;29;20427;-78
2022/11/28 07:13:52;;;;;;;14.10;7.25;;;4.10;99.90;;;2.38;100.00;100441.91;4872118;29;20033;-75
2022/11/28 07:16:26;;;;;;;13.65;7.68;;;4.10;99.90;;;2.38;100.00;100431.97;4870895;29;20069;-76
2022/11/28 07:18:55;;;;;;;10.82;6.43;;;4.10;99.90;;;2.36;100.00;100428.59;4871382;29;20401;-75
2022/11/28 07:21:22;;;;;;;13.82;7.20;;;4.10;99.90;;;2.44;100.00;100444.78;4870667;29;20029;-75
2022/11/28 07:23:49;;;;;;;11.15;6.57;;;4.10;99.90;;;2.44;100.00;100436.69;4871384;29;20666;-75
2022/11/28 07:26:19;;;;;;;13.00;6.95;;;4.10;99.90;;;2.50;100.00;100445.09;4870350;29;20029;-75
2022/11/28 07:28:45;;;;;;;13.77;7.13;;;4.20;99.90;;;2.51;100.00;100441.41;4874593;29;20499;-75
2022/11/28 07:31:30;;;;;;;12.77;6.90;;;4.20;99.90;;;2.55;100.00;100445.44;4877222;29;20037;-75
2022/11/28 07:33:56;;;;;;;10.85;6.50;;;4.20;99.90;;;2.57;100.00;100444.25;4874021;29;20049;-74
2022/11/28 07:36:26;;;;;;;11.23;6.47;;;4.20;99.90;;;2.59;100.00;100444.94;4880776;29;20040;-75
2022/11/28 07:38:59;;;;;;;11.57;6.88;;;4.20;99.90;;;2.60;100.00;100437.69;4872466;29;20068;-76
2022/11/28 07:41:26;;;;;;;13.20;7.47;;;4.30;99.90;;;2.59;100.00;100436.84;4876802;29;20056;-75
2022/11/28 07:44:01;;;;;;;12.13;7.07;;;4.30;99.90;;;2.55;100.00;100431.97;4877419;29;20057;-74
2022/11/28 07:46:30;;;;;;;13.32;7.30;;;4.30;99.90;;;2.59;100.00;100439.53;4872157;29;20110;-75
2022/11/28 07:48:56;;;;;;;10.90;6.28;;;4.30;99.90;;;2.63;100.00;100449.97;4877400;29;20089;-74
2022/11/28 07:51:28;;;;;;;12.43;7.20;;;4.30;99.90;;;2.62;100.00;100441.03;4877368;29;20404;-75
2022/11/28 07:53:55;;;;;;;11.65;6.53;;;4.40;99.90;;;2.63;100.00;100437.34;4875744;29;20034;-75
2022/11/28 07:56:25;;;;;;;12.53;6.83;;;4.40;99.90;;;2.70;100.00;100454.53;4872248;29;20041;-75
2022/11/28 07:58:51;;;;;;;14.80;6.70;;;4.40;99.90;;;2.75;100.00;100447.78;4875169;29;20057;-75
2022/11/28 08:01:30;;;;;;;12.30;6.53;;;4.40;99.90;;;2.81;100.00;100456.03;4875954;29;20468;-78
2022/11/28 08:03:56;;;;;;;11.90;7.03;;;4.50;99.90;;;2.83;100.00;100450.44;4875912;29;20071;-77
2022/11/28 08:06:26;;;;;;;10.00;5.80;;;4.60;99.90;;;2.92;100.00;100459.38;4877631;29;20040;-77
2022/11/28 08:08:58;;;;;;;11.38;6.10;;;4.60;99.90;;;3.00;100.00;100462.91;4875597;29;20041;-78
2022/11/28 08:11:27;;;;;;;11.23;5.80;;;4.70;99.90;;;3.04;100.00;100451.78;4876806;29;20045;-77
2022/11/28 08:13:53;;;;;;;;;;;4.70;99.90;;;3.06;100.00;100447.91;4880679;29;20140;-77
2022/11/28 08:16:24;;;;;;;8.80;5.40;;;4.80;99.90;;;3.12;100.00;100447.19;4879931;29;19920;-78
2022/11/28 08:18:52;;;;;;;10.35;6.38;;;4.80;99.90;;;3.15;100.00;100449.56;4876110;29;20041;-78
2022/11/28 08:21:22;;;;;;;11.43;5.82;;;4.90;99.90;;;3.19;100.00;100438.41;4872452;29;20054;-77
2022/11/28 08:23:50;;;;;;;11.43;6.90;;;4.90;99.90;;;3.19;100.00;100441.13;4868511;29;20069;-77
2022/11/28 08:26:19;;;;;;;11.48;6.07;;;4.90;99.90;;;3.16;100.00;100437.75;4873051;29;20066;-76
2022/11/28 08:28:44;;;;;;;13.50;6.82;;;4.90;99.90;;;3.07;100.00;100430.72;4874969;29;20032;-76
2022/11/28 08:31:21;;;;;;;12.63;7.13;;;4.90;99.90;;;3.09;100.00;100439.47;4877486;29;20033;-75
2022/11/28 08:33:51;;;;;;;13.02;7.07;;;4.80;99.90;;;3.08;100.00;100436.94;4876907;29;20068;-76
2022/11/28 08:36:18;;;;;;;11.30;6.70;;;4.80;99.90;;;3.07;100.00;100443.34;4870822;29;20077;-76
2022/11/28 08:38:45;;;;;;;11.83;7.03;;;4.80;99.90;;;3.10;100.00;100445.69;4873053;29;20032;-76
2022/11/28 08:41:14;;;;;;;11.65;6.93;;;4.80;99.90;;;3.23;100.00;100456.78;4874135;29;20296;-76
2022/11/28 08:43:41;;;;;;;11.68;6.47;;;4.90;99.90;;;3.32;100.00;100446.81;4872362;29;20044;-76
2022/11/28 08:46:12;;;;;;;12.60;6.20;;;5.00;99.90;;;3.40;100.00;100445.91;4875932;29;20066;-76
2022/11/28 08:48:39;;;;;;;11.00;6.10;;;5.10;99.90;;;3.51;100.00;100442.84;4874842;29;20048;-75
2022/11/28 08:51:06;;;;;;;11.43;5.90;;;5.20;99.90;;;3.60;100.00;100444.50;4870257;29;20055;-77
2022/11/28 08:53:32;;;;;;;13.38;6.50;;;5.20;99.90;;;3.62;100.00;100443.47;4869805;29;20144;-77
2022/11/28 08:55:59;;;;;;;11.18;6.63;;;5.30;99.90;;;3.68;100.00;100448.16;4873650;29;20128;-76
2022/11/28 08:58:25;;;;;;;9.85;5.45;;;5.30;99.90;;;3.76;100.00;100444.56;4874141;29;20061;-77
2022/11/28 09:00:51;;;;;;;9.73;5.63;;;5.40;99.90;;;3.81;100.00;100445.75;4873248;29;20108;-77
2022/11/28 09:03:19;;;;;;;10.07;5.43;;;5.50;99.90;;;3.87;100.00;100458.50;4874442;29;20480;-77
2022/11/28 09:05:46;;;;;;;10.40;5.55;;;5.50;99.90;;;3.95;100.00;100459.47;4873300;29;20480;-77
2022/11/28 09:08:14;;;;;;;9.70;5.70;;;5.60;99.90;;;4.01;100.00;100458.78;4871915;29;20116;-77
2022/11/28 09:10:41;;;;;;;10.55;6.18;;;5.60;99.90;;;3.98;100.00;100453.75;4874292;29;20029;-75
2022/11/28 09:13:08;;;;;;;9.88;6.05;;;5.70;99.90;;;3.88;100.00;100453.97;4874670;29;20044;-75
2022/11/28 09:15:34;;;;;;;10.90;6.43;;;5.60;99.90;;;3.79;100.00;100452.31;4874833;29;20400;-76
2022/11/28 09:18:00;;;;;;;8.98;5.43;;;5.60;99.90;;;3.82;100.00;100457.34;4873768;29;20041;-76
2022/11/28 09:20:26;;;;;;;12.13;6.63;;;5.60;99.90;;;3.81;100.00;100452.97;4870851;29;20392;-75
2022/11/28 09:22:52;;;;;;;10.73;5.95;;;5.60;99.90;;;3.80;100.00;100464.78;4875572;29;20048;-77
2022/11/28 09:25:17;;;;;;;13.20;6.90;;;5.60;99.90;;;3.79;100.00;100463.13;4874263;29;20144;-76
2022/11/28 09:27:43;;;;;;;11.60;6.13;;;5.50;99.90;;;3.73;100.00;100451.19;4878282;29;20036;-76
2022/11/28 09:30:11;;;;;;;10.73;6.50;;;5.50;99.90;;;3.71;100.00;100448.66;4873759;29;20073;-76
2022/11/28 09:32:37;;;;;;;;;;;5.50;99.90;;;3.76;100.00;100461.63;4876119;29;20049;-77
2022/11/28 09:35:03;;;;;;;11.75;6.90;;;5.50;99.90;;;3.78;100.00;100467.69;4874541;29;20032;-77
2022/11/28 09:37:29;;;;;;;11.25;6.78;;;5.50;99.90;;;3.81;100.00;100463.78;4874464;29;20467;-76
2022/11/28 09:39:55;;;;;;;14.23;7.80;;;5.50;99.90;;;3.82;100.00;100455.50;4875672;29;20048;-76
2022/11/28 09:42:42;;;;;;;12.88;7.18;;;5.60;99.90;;;3.75;100.00;100446.44;4873656;29;20021;-77
2022/11/28 09:45:20;;;;;;;14.35;7.60;;;5.50;99.90;;;3.73;100.00;100451.19;4874324;29;20053;-76
2022/11/28 09:47:56;;;;;;;12.02;7.25;;;5.50;99.90;;;3.71;100.00;100453.19;4871072;29;20032;-76
2022/11/28 09:50:30;;;;;;;15.63;8.10;;;5.50;99.90;;;3.72;100.00;100455.72;4874066;29;20037;-76
2022/11/28 09:53:14;;;;;;;13.57;7.95;;;5.50;99.90;;;3.78;100.00;100459.59;4871665;29;20029;-76
2022/11/28 09:55:53;;;;;;;11.45;7.05;;;5.50;99.90;;;3.82;100.00;100451.97;4872789;29;20037;-77
2022/11/28 09:58:49;;;;;;;13.18;7.90;;;5.60;99.90;;;3.86;100.00;100451.44;4874409;29;20578;-77
2022/11/28 10:01:47;;;;;;;13.05;7.95;;;5.60;99.90;;;3.85;100.00;100446.22;4873988;29;20650;-77
2022/11/28 10:04:26;;;;;;;16.00;8.27;;;5.60;99.90;;;3.91;100.00;100447.34;4872867;29;20044;-77
2022/11/28 10:07:07;;;;;;;14.90;8.18;;;5.60;99.90;;;3.91;100.00;100447.34;4871952;29;20048;-77
2022/11/28 10:09:58;;;;;;;13.55;8.02;;;5.60;99.90;;;3.90;100.00;100443.84;4874557;29;20047;-77
2022/11/28 10:13:10;;;;;;;14.73;8.50;;;5.70;99.90;;;3.87;100.00;100447.72;4871772;29;20075;-77
2022/11/28 10:15:52;;;;;;;13.50;7.80;;;5.60;99.90;;;3.91;100.00;100441.97;4874202;29;20037;-77
2022/11/28 10:18:36;;;;;;;12.77;7.75;;;5.70;99.90;;;3.98;100.00;100443.78;4871748;29;20141;-77
2022/11/28 10:21:34;;;;;;;14.68;8.50;;;5.70;99.90;;;4.03;100.00;100440.56;4869455;29;20132;-77
2022/11/28 10:24:11;;;;;;;13.30;8.00;;;5.70;99.90;;;4.03;100.00;100440.56;4875684;29;20044;-77
2022/11/28 10:26:47;;;;;;;15.05;8.75;;;5.80;99.90;;;4.05;100.00;100443.06;4874253;29;20029;-78
2022/11/28 10:29:29;;;;;;;16.30;8.48;;;5.80;99.90;;;4.09;100.00;100428.19;4869620;29;20064;-78
2022/11/28 10:32:00;;;;;;;16.15;8.65;;;5.80;99.90;;;4.19;100.00;100431.50;4857842;29;20093;-76
2022/11/28 10:35:05;;;;;;;16.50;9.10;;;5.90;99.90;;;4.21;100.00;100424.06;4873346;29;20029;-76
2022/11/28 10:37:37;;;;;;;16.02;8.00;;;5.90;99.90;;;4.24;100.00;100431.78;4872655;29;20033;-76
2022/11/28 10:40:24;;;;;;;14.00;7.65;;;6.00;99.90;;;4.24;100.00;100434.50;4873508;29;20499;-76
2022/11/28 10:43:01;;;;;;;12.48;8.25;;;6.00;99.90;;;4.26;100.00;100432.44;4871022;29;20191;-76
2022/11/28 10:45:45;;;;;;;13.18;8.27;;;6.00;99.90;;;4.27;100.00;100436.00;4873162;29;20044;-76